createdAt,value
2022-10-19T00:02:50.976Z,62.82
2022-10-19T00:05:52.750Z,62.85
2022-10-19T00:08:56.374Z,62.90
2022-10-19T00:11:58.227Z,63.24
2022-10-19T00:15:00.260Z,63.36
2022-10-19T00:18:02.039Z,63.32
2022-10-19T00:21:08.230Z,63.45
2022-10-19T00:24:10.393Z,63.54
2022-10-19T00:27:12.175Z,63.87
2022-10-19T00:30:14.134Z,63.92
2022-10-19T00:33:21.136Z,64.15
2022-10-19T00:36:27.264Z,64.22
2022-10-19T00:39:29.009Z,64.36
2022-10-19T00:42:30.967Z,64.31
2022-10-19T00:45:33.192Z,64.52
2022-10-19T00:48:35.030Z,64.60
2022-10-19T00:51:40.988Z,64.83
2022-10-19T00:54:45.815Z,64.56
2022-10-19T00:57:47.818Z,64.81
2022-10-19T01:00:49.707Z,65.01
2022-10-19T01:03:51.443Z,65.02
2022-10-19T01:06:54.316Z,65.37
2022-10-19T01:09:56.134Z,65.83
2022-10-19T01:13:19.709Z,65.42
2022-10-19T01:16:31.579Z,65.54
2022-10-19T01:19:57.922Z,65.60
2022-10-19T01:23:17.845Z,65.85
2022-10-19T01:26:36.319Z,65.84
2022-10-19T01:29:56.762Z,66.16
2022-10-19T01:33:21.050Z,66.16
2022-10-19T01:36:27.339Z,66.03
2022-10-19T01:40:24.812Z,66.67
2022-10-19T01:43:32.476Z,66.60
2022-10-19T01:46:39.681Z,66.64
2022-10-19T01:49:43.376Z,66.76
2022-10-19T01:52:45.157Z,67.27
2022-10-19T01:55:51.268Z,67.34
2022-10-19T01:58:56.553Z,67.54
2022-10-19T02:01:58.823Z,67.75
2022-10-19T02:05:03.311Z,67.88
2022-10-19T02:08:11.602Z,68.01
2022-10-19T02:11:13.390Z,68.18
2022-10-19T02:14:18.789Z,68.20
2022-10-19T02:17:29.578Z,69.33
2022-10-19T02:20:31.403Z,68.60
2022-10-19T02:23:33.446Z,68.34
2022-10-19T02:26:35.496Z,68.81
2022-10-19T02:29:38.727Z,69.01
2022-10-19T02:32:41.119Z,69.67
2022-10-19T02:35:43.313Z,69.41
2022-10-19T02:38:45.318Z,69.34
2022-10-19T02:42:27.683Z,70.16
2022-10-19T02:45:33.100Z,70.54
2022-10-19T02:48:36.452Z,70.51
2022-10-19T02:51:54.597Z,70.53
2022-10-19T02:54:56.441Z,70.49
2022-10-19T02:57:58.222Z,70.60
2022-10-19T03:01:00.027Z,71.41
2022-10-19T03:04:01.771Z,71.09
2022-10-19T03:07:03.600Z,71.57
2022-10-19T03:10:05.854Z,71.61
2022-10-19T03:13:07.720Z,71.93
2022-10-19T03:16:11.447Z,72.15
2022-10-19T03:19:13.385Z,72.16
2022-10-19T03:22:15.389Z,72.25
2022-10-19T03:25:17.141Z,72.41
2022-10-19T03:28:18.906Z,72.71
2022-10-19T03:31:20.830Z,73.28
2022-10-19T03:34:22.639Z,72.88
2022-10-19T03:37:24.501Z,73.01
2022-10-19T03:40:26.282Z,73.61
2022-10-19T03:43:28.048Z,73.39
2022-10-19T03:46:29.893Z,73.73
2022-10-19T03:49:32.382Z,74.08
2022-10-19T03:52:35.469Z,74.02
2022-10-19T03:55:37.217Z,74.10
2022-10-19T03:58:40.249Z,74.20
2022-10-19T04:01:46.364Z,74.69
2022-10-19T04:04:48.117Z,74.76
2022-10-19T04:07:49.949Z,74.80
2022-10-19T04:10:51.664Z,74.95
2022-10-19T04:13:55.066Z,75.19
2022-10-19T04:16:56.862Z,75.01
2022-10-19T04:19:58.622Z,75.46
2022-10-19T04:23:00.375Z,75.51
2022-10-19T04:26:03.720Z,75.62
2022-10-19T04:29:05.599Z,75.85
2022-10-19T04:32:07.519Z,75.78
2022-10-19T04:35:09.535Z,75.83
2022-10-19T04:38:11.299Z,76.07
2022-10-19T04:41:15.756Z,75.99
2022-10-19T04:44:17.597Z,76.75
2022-10-19T04:47:19.392Z,76.60
2022-10-19T04:50:21.163Z,76.25
2022-10-19T04:53:26.316Z,75.92
2022-10-19T04:56:28.926Z,76.47
2022-10-19T04:59:30.733Z,76.43
2022-10-19T05:02:32.624Z,76.30
2022-10-19T05:05:34.592Z,76.32
2022-10-19T05:08:37.583Z,76.73
2022-10-19T05:11:39.367Z,76.48
2022-10-19T05:14:42.829Z,76.22
2022-10-19T05:17:44.937Z,76.05
2022-10-19T05:20:46.790Z,75.55
2022-10-19T05:23:52.452Z,75.76
2022-10-19T05:26:54.200Z,75.80
2022-10-19T05:29:56.653Z,75.56
2022-10-19T05:32:58.657Z,75.34
2022-10-19T05:36:00.446Z,75.57
2022-10-19T05:39:14.001Z,75.38
2022-10-19T05:42:15.784Z,75.18
2022-10-19T05:45:17.574Z,75.04
2022-10-19T05:48:19.439Z,74.79
2022-10-19T05:51:22.158Z,74.91
2022-10-19T05:54:26.386Z,74.91
2022-10-19T05:57:32.455Z,74.67
2022-10-19T06:00:34.412Z,74.69
2022-10-19T06:03:36.657Z,74.31
2022-10-19T06:06:38.426Z,74.01
2022-10-19T06:09:40.203Z,73.35
2022-10-19T06:12:42.158Z,73.06
2022-10-19T06:15:44.206Z,72.56
2022-10-19T06:18:46.363Z,72.06
2022-10-19T06:21:48.151Z,71.46
2022-10-19T06:24:50.038Z,70.99
2022-10-19T06:27:51.786Z,70.66
2022-10-19T06:30:53.772Z,70.53
2022-10-19T06:33:56.160Z,70.42
2022-10-19T06:36:58.104Z,70.53
2022-10-19T06:40:02.489Z,70.70
2022-10-19T06:43:08.974Z,70.64
2022-10-19T06:46:15.729Z,70.76
2022-10-19T06:49:18.545Z,70.09
2022-10-19T06:52:20.321Z,69.61
2022-10-19T06:55:22.367Z,69.44
2022-10-19T06:58:28.588Z,69.34
2022-10-19T07:01:30.697Z,69.27
2022-10-19T07:04:32.471Z,68.45
2022-10-19T07:07:35.190Z,68.34
2022-10-19T07:10:36.986Z,67.77
2022-10-19T07:13:39.222Z,66.60
2022-10-19T07:16:40.988Z,66.29
2022-10-19T07:19:42.985Z,65.77
2022-10-19T07:22:44.777Z,65.36
2022-10-19T07:25:46.572Z,64.99
2022-10-19T07:28:49.195Z,64.57
2022-10-19T07:31:51.108Z,64.60
2022-10-19T07:34:52.875Z,64.28
2022-10-19T10:26:17.877Z,56.58
2022-10-19T10:29:25.664Z,56.41
2022-10-19T10:32:28.659Z,56.98
2022-10-19T10:35:37.246Z,56.79
2022-10-19T10:38:47.133Z,56.95
2022-10-19T10:41:49.139Z,57.87
2022-10-19T10:44:53.511Z,57.85
2022-10-19T10:47:56.786Z,57.93
2022-10-19T10:51:00.980Z,58.51
2022-10-19T10:54:14.991Z,58.20
2022-10-19T11:00:29.535Z,58.90
2022-10-19T11:03:33.263Z,59.10
2022-10-19T11:06:47.516Z,59.39
2022-10-19T11:09:53.968Z,59.20
2022-10-19T11:13:10.385Z,59.38
2022-10-19T11:16:16.241Z,58.95
2022-10-19T11:19:35.112Z,58.59
2022-10-19T11:23:02.128Z,59.18
2022-10-19T11:26:39.493Z,59.46
2022-10-19T11:30:30.190Z,59.83
2022-10-19T11:33:45.827Z,60.60
2022-10-19T11:36:53.580Z,60.46
2022-10-19T11:40:14.203Z,60.62
2022-10-19T11:43:37.843Z,61.18
2022-10-19T11:46:54.101Z,60.88
2022-10-19T11:50:25.043Z,61.40
2022-10-19T11:53:34.688Z,62.61
2022-10-19T11:57:03.212Z,62.72
2022-10-19T12:00:15.356Z,64.60
2022-10-19T12:03:44.520Z,68.99
2022-10-19T12:06:49.137Z,68.47
2022-10-19T12:10:20.004Z,69.01
2022-10-19T12:13:33.410Z,70.02
2022-10-19T12:16:41.824Z,70.12
2022-10-19T12:19:49.360Z,70.97
2022-10-19T12:22:51.415Z,71.72
2022-10-19T12:25:56.840Z,72.99
2022-10-19T12:29:13.205Z,74.07
2022-10-19T12:32:19.377Z,76.06
2022-10-19T12:35:48.236Z,76.18
2022-10-19T12:39:00.210Z,75.51
2022-10-19T12:42:14.045Z,76.68
2022-10-19T12:45:52.091Z,77.17
2022-10-19T12:49:30.780Z,77.21
2022-10-19T12:52:37.716Z,77.08
2022-10-19T12:55:42.351Z,77.31
2022-10-19T12:59:01.666Z,78.04
2022-10-19T13:02:06.740Z,78.83
2022-10-19T13:05:19.411Z,78.75
2022-10-19T13:08:29.870Z,81.00
2022-10-19T13:11:32.356Z,80.27
2022-10-19T13:14:52.236Z,79.95
2022-10-19T13:17:54.064Z,80.61
2022-10-19T13:20:55.951Z,81.13
2022-10-19T13:24:20.583Z,83.06
2022-10-19T13:27:26.509Z,81.66
2022-10-19T13:30:41.942Z,81.74
2022-10-19T13:33:47.405Z,81.60
2022-10-19T13:37:03.144Z,81.77
2022-10-19T13:40:23.671Z,81.82
2022-10-19T13:43:34.655Z,81.58
2022-10-19T13:47:08.090Z,81.36
2022-10-19T13:50:15.690Z,82.14
2022-10-19T13:53:30.678Z,82.44
2022-10-19T13:56:47.427Z,81.71
2022-10-19T14:00:01.951Z,81.25
2022-10-19T14:03:40.780Z,81.37
2022-10-19T14:06:54.995Z,81.73
2022-10-19T14:10:08.531Z,81.23
2022-10-19T14:13:14.678Z,81.58
2022-10-19T14:16:21.703Z,81.37
2022-10-19T14:19:33.784Z,81.52
2022-10-19T14:22:36.396Z,81.81
2022-10-19T14:25:38.346Z,82.34
2022-10-19T14:28:41.249Z,82.14
2022-10-19T14:31:43.336Z,82.60
2022-10-19T14:34:47.228Z,82.74
2022-10-19T14:37:49.738Z,82.63
2022-10-19T14:40:51.830Z,82.88
2022-10-19T14:43:56.892Z,83.05
2022-10-19T14:47:01.296Z,83.29
2022-10-19T14:50:03.974Z,83.01
2022-10-19T14:54:01.269Z,82.80
2022-10-19T14:57:12.945Z,82.50
2022-10-19T15:00:18.834Z,83.04
2022-10-19T15:03:27.975Z,83.48
2022-10-19T15:06:32.615Z,83.20
2022-10-19T15:09:48.785Z,83.45
2022-10-19T15:12:52.799Z,83.66
2022-10-19T15:15:55.691Z,83.86
2022-10-19T15:19:03.070Z,83.67
2022-10-19T15:22:29.362Z,84.69
2022-10-19T15:25:36.912Z,84.50
2022-10-19T15:28:41.563Z,84.32
2022-10-19T15:31:43.814Z,84.87
2022-10-19T15:34:46.237Z,84.39
2022-10-19T15:37:50.209Z,84.78
2022-10-19T15:41:01.161Z,85.17
2022-10-19T15:44:05.070Z,84.84
2022-10-19T15:47:16.419Z,84.99
2022-10-19T15:50:36.658Z,84.78
2022-10-19T15:53:38.449Z,84.55
2022-10-19T15:56:40.546Z,84.99
2022-10-19T15:59:42.377Z,85.13
2022-10-19T16:02:44.638Z,84.85
2022-10-19T16:05:47.242Z,85.07
2022-10-19T16:08:51.186Z,85.55
2022-10-19T16:11:57.016Z,86.06
2022-10-19T16:14:58.785Z,85.42
2022-10-19T16:18:00.816Z,85.13
2022-10-19T16:21:02.735Z,85.65
2022-10-19T16:24:04.985Z,85.86
2022-10-19T16:27:07.797Z,85.38
2022-10-19T16:30:10.384Z,85.13
2022-10-19T16:33:12.508Z,84.87
2022-10-19T16:36:14.680Z,84.80
2022-10-19T16:39:16.570Z,84.82
2022-10-19T16:42:18.510Z,84.93
2022-10-19T16:45:20.372Z,84.97
2022-10-19T16:48:24.176Z,84.84
2022-10-19T16:51:44.024Z,84.52
2022-10-19T16:54:45.790Z,84.83
2022-10-19T16:57:47.588Z,84.59
2022-10-19T17:00:49.458Z,84.67
2022-10-19T17:03:51.636Z,84.59
2022-10-19T17:06:53.470Z,84.48
2022-10-19T17:09:55.374Z,84.83
2022-10-19T17:12:57.211Z,84.76
2022-10-19T17:16:04.125Z,84.55
2022-10-19T17:19:13.386Z,84.31
2022-10-19T17:22:18.193Z,84.39
2022-10-19T17:25:20.355Z,85.02
2022-10-19T17:28:24.177Z,85.04
2022-10-19T17:31:29.679Z,84.94
2022-10-19T17:34:31.689Z,85.36
2022-10-19T17:37:33.761Z,85.55
2022-10-19T17:40:35.783Z,85.27
2022-10-19T17:43:39.833Z,85.54
2022-10-19T17:46:41.765Z,85.70
2022-10-19T17:49:43.641Z,85.86
2022-10-19T17:52:45.467Z,85.57
2022-10-19T17:55:50.421Z,85.47
2022-10-19T17:58:52.665Z,85.44
2022-10-19T18:01:54.837Z,85.52
2022-10-19T18:04:56.640Z,85.56
2022-10-19T18:07:59.855Z,85.58
2022-10-19T18:11:07.363Z,85.52
2022-10-19T18:14:11.120Z,85.34
2022-10-19T18:17:12.975Z,85.23
2022-10-19T18:20:14.818Z,84.92
2022-10-19T18:23:17.061Z,84.84
2022-10-19T18:26:22.183Z,84.81
2022-10-19T18:29:26.622Z,84.89
2022-10-19T18:32:28.520Z,84.63
2022-10-19T18:35:30.641Z,84.71
2022-10-19T18:38:32.715Z,84.65
2022-10-19T18:41:34.813Z,84.44
2022-10-19T18:44:36.748Z,84.44
2022-10-19T18:47:38.635Z,84.05
2022-10-19T18:50:40.529Z,84.02
2022-10-19T18:53:43.330Z,83.77
2022-10-19T18:56:57.461Z,84.19
2022-10-19T18:59:59.542Z,83.63
2022-10-19T19:03:01.805Z,83.21
2022-10-19T19:06:09.534Z,82.99
2022-10-19T19:09:12.860Z,82.99
2022-10-19T19:12:15.955Z,82.76
2022-10-19T19:15:18.377Z,82.50
2022-10-19T19:18:20.224Z,82.49
2022-10-19T19:21:26.890Z,82.30
2022-10-19T19:24:31.634Z,81.96
2022-10-19T19:27:33.668Z,81.89
2022-10-19T19:30:43.752Z,81.52
2022-10-19T19:33:47.064Z,81.27
2022-10-19T19:36:49.216Z,81.60
2022-10-19T19:39:51.134Z,81.34
2022-10-19T19:42:52.965Z,81.09
2022-10-19T19:46:03.172Z,81.25
2022-10-19T19:49:08.477Z,81.46
2022-10-19T19:52:10.368Z,81.78
2022-10-19T19:55:12.166Z,82.31
2022-10-19T19:58:15.662Z,82.25
2022-10-19T20:01:20.717Z,82.87
2022-10-19T20:04:22.531Z,83.39
2022-10-19T20:07:26.904Z,83.54
2022-10-19T20:10:28.859Z,83.86
2022-10-19T20:13:31.398Z,84.12
2022-10-19T20:16:33.632Z,84.26
2022-10-19T20:19:35.513Z,84.06
2022-10-19T20:22:38.572Z,84.61
2022-10-19T20:25:40.371Z,84.30
2022-10-19T20:28:42.145Z,84.29
2022-10-19T20:31:43.870Z,84.36
2022-10-19T20:34:45.672Z,84.31
2022-10-19T20:37:50.685Z,84.20
2022-10-19T20:40:54.568Z,84.13
2022-10-19T20:43:56.923Z,84.07
2022-10-19T20:46:58.749Z,84.04
2022-10-19T20:50:00.571Z,84.91
2022-10-19T20:53:02.564Z,85.91
2022-10-19T20:56:09.497Z,85.91
2022-10-19T20:59:14.645Z,86.11
2022-10-19T21:02:16.588Z,85.96
2022-10-19T21:05:18.357Z,85.80
2022-10-19T21:08:20.725Z,85.67
2022-10-19T21:11:25.011Z,85.47
2022-10-19T21:14:29.258Z,85.14
2022-10-19T21:20:37.918Z,84.54
2022-10-19T21:23:40.231Z,84.34
2022-10-19T21:26:42.694Z,84.24
2022-10-19T21:29:45.336Z,83.83
2022-10-19T21:32:47.774Z,83.58
2022-10-19T21:38:52.323Z,83.49
2022-10-19T21:41:54.208Z,83.59
2022-10-19T21:45:06.221Z,83.52
2022-10-19T21:48:08.107Z,83.33
2022-10-19T21:51:28.244Z,82.90
2022-10-19T21:54:30.206Z,82.92
2022-10-19T21:57:32.075Z,82.87
2022-10-19T22:00:33.916Z,82.48
2022-10-19T22:03:36.180Z,82.29
2022-10-19T22:06:38.022Z,82.49
2022-10-19T22:09:39.780Z,82.57
2022-10-19T22:12:41.608Z,82.56
2022-10-19T22:15:43.603Z,82.56
2022-10-19T22:18:46.032Z,83.13
2022-10-19T22:21:47.794Z,82.53
2022-10-19T22:24:49.539Z,82.61
2022-10-19T22:27:51.280Z,82.30
2022-10-19T22:30:57.417Z,82.03
2022-10-19T22:34:08.872Z,81.97
2022-10-19T22:37:10.696Z,82.08
2022-10-19T22:40:13.247Z,82.22
2022-10-19T22:43:15.028Z,82.76
2022-10-19T22:46:16.942Z,82.80
2022-10-19T22:49:18.903Z,83.42
2022-10-19T22:52:20.681Z,83.88
2022-10-19T22:55:22.517Z,83.71
2022-10-19T22:58:24.260Z,83.85
2022-10-19T23:01:26.280Z,84.19
2022-10-19T23:04:28.199Z,84.23
2022-10-19T23:07:30.012Z,84.02
2022-10-19T23:10:32.784Z,84.38
2022-10-19T23:13:34.611Z,84.47
2022-10-19T23:16:36.410Z,84.43
2022-10-19T23:19:38.203Z,84.45
2022-10-19T23:22:40.832Z,84.15
2022-10-19T23:25:42.619Z,84.08
2022-10-19T23:28:46.037Z,84.16
2022-10-19T23:31:48.645Z,84.24
2022-10-19T23:34:50.521Z,84.09
2022-10-19T23:37:52.371Z,84.50
2022-10-19T23:40:54.204Z,84.88
2022-10-19T23:43:56.065Z,85.08
2022-10-19T23:46:57.801Z,85.40
2022-10-19T23:49:59.687Z,85.48
2022-10-19T23:53:01.570Z,85.59
2022-10-19T23:56:14.820Z,85.43
2022-10-19T23:59:16.685Z,85.35
